DucheSS Of Scandinavia — OUZI2 — position and weather

sailwx.info

Track history (hours):
 
Tides and Currents Weather Stations Pressure Air Temp Water Temp Dewpoint Dewpoint Depression Visibility Wind Speed Wind Dir Waves Ship Positions

DucheSS Of Scandinavia

Operator: DFDS A/S

Last reported at 2017-Aug-23 13:30 UTC. Time now 2017-Aug-23 13:44 UTC.
Position N 59°06' E 010°14'.

Length 134 m; draft 5.4 m.

Type: Passenger vessel. MMSI: 219002929.

Date/timePositionNaut miles runAvg speedWind from/ knotsBaromVisibWave heightAir tempDewpointWater temp
2017-Aug-23 13:30N 59°06' E 010°14'1 2.9
2017-Aug-23 13:01N 59°08' E 010°14'0 0.0
2017-Aug-23 12:30N 59°08' E 010°14'4 8.6
2017-Aug-23 12:00N 59°03' E 010°15'713.8
2017-Aug-23 11:30N 59°01' E 010°28'815.6
2017-Aug-23 11:01N 59°02' E 010°43'714.8
2017-Aug-23 10:30N 59°00' E 010°57'714.7
2017-Aug-23 10:01N 58°56' E 011°08'1 1.9
2017-Aug-23 09:30N 58°56' E 011°10'0 0.0
2017-Aug-23 09:00N 58°56' E 011°10'5 9.3
2017-Aug-23 08:30N 58°58' E 011°02'816.3
2017-Aug-23 08:01N 59°02' E 010°48'816.1
2017-Aug-23 07:31N 59°01' E 010°32'816.0
2017-Aug-23 07:00N 59°01' E 010°17'612.1
2017-Aug-23 06:29N 59°07' E 010°14'0 0.4
2017-Aug-23 06:00N 59°08' E 010°14'0 0.2
2017-Aug-23 05:30N 59°07' E 010°14'1 2.5
2017-Aug-23 04:58N 59°06' E 010°14'0 0.0
2017-Aug-23 04:29N 59°06' E 010°14'0 0.0
2017-Aug-23 03:59N 59°06' E 010°14'0 0.0
2017-Aug-23 03:26N 59°06' E 010°14'0 0.0
2017-Aug-23 03:00N 59°06' E 010°14'0 0.0
2017-Aug-23 02:27N 59°06' E 010°14'0 0.0
2017-Aug-23 01:54N 59°06' E 010°14'0 0.0
2017-Aug-23 01:28N 59°06' E 010°14'0 0.0
2017-Aug-23 00:52N 59°06' E 010°14'0 0.0
2017-Aug-23 00:22N 59°06' E 010°14'0 0.0
2017-Aug-22 23:59N 59°06' E 010°14'0 0.0
2017-Aug-22 23:29N 59°06' E 010°14'0 0.0
2017-Aug-22 22:53N 59°06' E 010°14'0 0.0
2017-Aug-22 22:30N 59°06' E 010°14'0 0.0
2017-Aug-22 22:00N 59°06' E 010°14'0 0.0
2017-Aug-22 21:30N 59°06' E 010°14'0 0.0
2017-Aug-22 20:55N 59°06' E 010°14'0 0.0
2017-Aug-22 20:28N 59°06' E 010°14'0 0.0
2017-Aug-22 19:49N 59°06' E 010°14'0 0.2
2017-Aug-22 19:30N 59°06' E 010°14'1 2.8
2017-Aug-22 19:00N 59°08' E 010°14'3 5.9
2017-Aug-22 18:31N 59°05' E 010°15'713.1
2017-Aug-22 18:01N 59°01' E 010°25'816.1
2017-Aug-22 17:31N 59°01' E 010°41'816.1
2017-Aug-22 17:00N 59°00' E 010°56'815.3
2017-Aug-22 16:31N 58°56' E 011°08'1 2.0
2017-Aug-22 16:00N 58°56' E 011°10'3 6.1
2017-Aug-22 15:31N 58°57' E 011°04'815.8
2017-Aug-22 15:01N 59°01' E 010°51'816.0
2017-Aug-22 14:30N 59°00' E 010°36'815.7
2017-Aug-22 14:01N 59°00' E 010°21'713.6
2017-Aug-22 13:30N 59°06' E 010°14'1 2.9
2017-Aug-22 13:00N 59°08' E 010°14'0 0.0
2017-Aug-22 12:30N 59°08' E 010°14'4 8.6
2017-Aug-22 12:00N 59°03' E 010°15'713.6
2017-Aug-22 11:31N 59°01' E 010°27'815.2
2017-Aug-22 11:01N 59°02' E 010°42'714.9
2017-Aug-22 10:31N 59°00' E 010°56'815.4
2017-Aug-22 10:01N 58°56' E 011°08'1 2.1
2017-Aug-22 09:31N 58°56' E 011°10'0 0.0
2017-Aug-22 09:01N 58°56' E 011°10'612.8
2017-Aug-22 08:30N 58°59' E 010°59'815.8
2017-Aug-22 08:01N 59°01' E 010°45'816.0
2017-Aug-22 07:31N 58°59' E 010°30'815.8
2017-Aug-22 07:01N 59°02' E 010°16'611.4
2017-Aug-22 06:30N 59°08' E 010°14'0 0.1
2017-Aug-22 06:00N 59°08' E 010°14'1 2.8
2017-Aug-22 05:30N 59°06' E 010°14'0 0.0
2017-Aug-22 04:53N 59°06' E 010°14'0 0.0
2017-Aug-22 04:27N 59°06' E 010°14'0 0.0
2017-Aug-22 04:00N 59°06' E 010°14'0 0.0
2017-Aug-22 03:30N 59°06' E 010°14'0 0.0
2017-Aug-22 02:58N 59°06' E 010°14'0 0.0
2017-Aug-22 02:28N 59°06' E 010°14'0 0.0
2017-Aug-22 01:58N 59°06' E 010°14'0 0.0
2017-Aug-22 01:29N 59°06' E 010°14'0 0.0
2017-Aug-22 00:59N 59°06' E 010°14'0 0.0
2017-Aug-22 00:29N 59°06' E 010°14'0 0.0
2017-Aug-22 00:00N 59°06' E 010°14'0 0.0
2017-Aug-21 23:30N 59°06' E 010°14'0 0.0
2017-Aug-21 23:00N 59°06' E 010°14'0 0.0
2017-Aug-21 22:28N 59°06' E 010°14'0 0.0
2017-Aug-21 21:58N 59°06' E 010°14'0 0.0
2017-Aug-21 21:28N 59°06' E 010°14'0 0.0
2017-Aug-21 20:59N 59°06' E 010°14'0 0.0
2017-Aug-21 20:29N 59°06' E 010°14'0 0.0
2017-Aug-21 19:59N 59°06' E 010°14'0 0.0
2017-Aug-21 19:31N 59°06' E 010°14'1 2.9
2017-Aug-21 19:01N 59°08' E 010°14'3 6.2
2017-Aug-21 18:31N 59°05' E 010°15'713.4
2017-Aug-21 18:01N 59°01' E 010°26'816.3
2017-Aug-21 17:30N 59°01' E 010°41'815.9
2017-Aug-21 17:00N 59°00' E 010°57'815.2
2017-Aug-21 16:31N 58°56' E 011°09'1 1.6
2017-Aug-21 16:00N 58°56' E 011°10'3 6.0
2017-Aug-21 15:30N 58°57' E 011°04'815.5
2017-Aug-21 15:01N 59°01' E 010°52'816.0
2017-Aug-21 14:30N 59°01' E 010°36'815.6
2017-Aug-21 14:01N 59°01' E 010°21'612.9
2017-Aug-21 13:30N 59°06' E 010°14'1 2.7
2017-Aug-21 13:01N 59°08' E 010°14'0 0.0
2017-Aug-21 12:30N 59°08' E 010°14'5 9.5
2017-Aug-21 12:00N 59°03' E 010°15'713.9
2017-Aug-21 11:30N 59°01' E 010°28'815.5
2017-Aug-21 11:00N 59°02' E 010°43'815.1
2017-Aug-21 10:30N 58°60' E 010°57'714.7
2017-Aug-21 10:00N 58°56' E 011°09'1 1.2
2017-Aug-21 09:30N 58°56' E 011°10'0 0.0
2017-Aug-21 09:01N 58°56' E 011°10'510.0
2017-Aug-21 08:31N 58°58' E 011°02'815.6
2017-Aug-21 08:00N 59°02' E 010°48'815.4
2017-Aug-21 07:30N 59°01' E 010°33'815.1
2017-Aug-21 07:00N 59°01' E 010°18'712.7
2017-Aug-21 06:30N 59°07' E 010°14'0 0.6
2017-Aug-21 06:00N 59°08' E 010°14'1 2.8
2017-Aug-21 05:29N 59°06' E 010°14'0 0.0
2017-Aug-21 04:50N 59°06' E 010°14'0 0.0
2017-Aug-21 04:21N 59°06' E 010°14'0 0.0
2017-Aug-21 03:51N 59°06' E 010°14'0 0.0
2017-Aug-21 03:30N 59°06' E 010°14'0 0.0
2017-Aug-21 02:58N 59°06' E 010°14'0 0.0
2017-Aug-21 02:25N 59°06' E 010°14'0 0.0
2017-Aug-21 01:52N 59°06' E 010°14'0 0.0
2017-Aug-21 01:29N 59°06' E 010°14'0 0.0
2017-Aug-21 00:59N 59°06' E 010°14'0 0.0
2017-Aug-21 00:29N 59°06' E 010°14'0 0.0
2017-Aug-21 00:00N 59°06' E 010°14'0 0.0
2017-Aug-20 23:30N 59°06' E 010°14'0 0.0
2017-Aug-20 23:00N 59°06' E 010°14'0 0.0
2017-Aug-20 22:25N 59°06' E 010°14'0 0.0
2017-Aug-20 21:58N 59°06' E 010°14'0 0.0
2017-Aug-20 21:28N 59°06' E 010°14'0 0.0
2017-Aug-20 20:56N 59°06' E 010°14'0 0.0
2017-Aug-20 20:29N 59°06' E 010°14'0 0.0
2017-Aug-20 19:56N 59°06' E 010°14'1 1.5
2017-Aug-20 19:30N 59°07' E 010°14'1 1.6
2017-Aug-20 19:00N 59°08' E 010°14'3 6.0
2017-Aug-20 18:31N 59°05' E 010°15'713.6
2017-Aug-20 18:00N 59°00' E 010°25'816.5
2017-Aug-20 17:31N 59°01' E 010°41'816.3
2017-Aug-20 17:01N 59°00' E 010°57'815.7
2017-Aug-20 16:30N 58°56' E 011°09'1 1.2
2017-Aug-20 16:00N 58°56' E 011°10'3 6.7
2017-Aug-20 15:31N 58°57' E 011°04'815.8
2017-Aug-20 15:00N 59°01' E 010°51'815.7
2017-Aug-20 14:31N 58°60' E 010°36'816.0
2017-Aug-20 14:00N 59°00' E 010°21'714.2
2017-Aug-20 13:30N 59°06' E 010°14'1 2.4
2017-Aug-20 13:01N 59°08' E 010°14'0 0.0
2017-Aug-20 12:30N 59°08' E 010°14'4 8.8
2017-Aug-20 12:00N 59°03' E 010°15'714.2
2017-Aug-20 11:30N 58°59' E 010°27'815.6
2017-Aug-20 11:01N 59°01' E 010°42'815.5
2017-Aug-20 10:31N 59°00' E 010°57'815.6
2017-Aug-20 10:00N 58°56' E 011°09'1 1.3
2017-Aug-20 09:30N 58°56' E 011°10'0 0.0
2017-Aug-20 09:01N 58°56' E 011°10'510.3
2017-Aug-20 08:31N 58°59' E 011°01'815.5
2017-Aug-20 08:01N 59°02' E 010°48'815.6
2017-Aug-20 07:30N 59°01' E 010°33'815.7
2017-Aug-20 07:01N 59°01' E 010°18'612.8
2017-Aug-20 06:30N 59°07' E 010°14'0 0.4
2017-Aug-20 06:00N 59°08' E 010°14'1 2.9
2017-Aug-20 05:30N 59°06' E 010°14'0 0.0
2017-Aug-20 04:56N 59°06' E 010°14'0 0.0
2017-Aug-20 04:27N 59°06' E 010°14'0 0.0
2017-Aug-20 04:00N 59°06' E 010°14'0 0.0
2017-Aug-20 03:30N 59°06' E 010°14'0 0.0
2017-Aug-20 02:58N 59°06' E 010°14'0 0.0
2017-Aug-20 02:28N 59°06' E 010°14'0 0.0
2017-Aug-20 01:58N 59°06' E 010°14'0 0.0
2017-Aug-20 01:29N 59°06' E 010°14'0 0.0
2017-Aug-20 00:59N 59°06' E 010°14'0 0.0
2017-Aug-20 00:29N 59°06' E 010°14'0 0.0
2017-Aug-19 23:54N 59°06' E 010°14'0 0.0
2017-Aug-19 23:24N 59°06' E 010°14'0 0.0
2017-Aug-19 23:00N 59°06' E 010°14'0 0.0
2017-Aug-19 22:28N 59°06' E 010°14'0 0.0
2017-Aug-19 21:58N 59°06' E 010°14'0 0.0
2017-Aug-19 21:25N 59°06' E 010°14'0 0.0
2017-Aug-19 20:56N 59°06' E 010°14'0 0.0
2017-Aug-19 20:29N 59°06' E 010°14'0 0.0
2017-Aug-19 19:59N 59°06' E 010°14'1 2.0
2017-Aug-19 19:30N 59°07' E 010°14'0 1.0
2017-Aug-19 19:00N 59°08' E 010°14'5 9.8
2017-Aug-19 18:30N 59°03' E 010°15'714.3
2017-Aug-19 18:01N 59°00' E 010°28'815.4
2017-Aug-19 17:30N 59°01' E 010°43'815.8
2017-Aug-19 17:01N 58°60' E 010°58'714.3
2017-Aug-19 16:31N 58°56' E 011°10'0 0.3
2017-Aug-19 16:01N 58°56' E 011°10'3 6.7
2017-Aug-19 15:31N 58°57' E 011°04'714.5
2017-Aug-19 15:01N 59°01' E 010°52'1515.4
2017-Aug-19 14:01N 59°01' E 010°22'713.5
2017-Aug-19 13:30N 59°06' E 010°14'2 3.1
2017-Aug-19 13:00N 59°08' E 010°14'0 0.0
2017-Aug-19 12:30N 59°08' E 010°14'510.2
2017-Aug-19 12:00N 59°03' E 010°15'714.7
2017-Aug-19 11:30N 59°00' E 010°29'815.1
2017-Aug-19 11:01N 59°02' E 010°44'715.0
2017-Aug-19 10:30N 58°60' E 010°58'714.4
2017-Aug-19 10:00N 58°56' E 011°09'1 1.0
2017-Aug-19 09:30N 58°56' E 011°10'0 0.0
2017-Aug-19 09:00N 58°56' E 011°10'5 9.7
2017-Aug-19 08:31N 58°58' E 011°02'815.9
2017-Aug-19 08:00N 59°02' E 010°48'816.3
2017-Aug-19 07:30N 59°01' E 010°32'815.7
2017-Aug-19 07:01N 59°01' E 010°17'612.1
2017-Aug-19 06:30N 59°07' E 010°14'0 0.3
2017-Aug-19 06:00N 59°08' E 010°14'0 0.3
2017-Aug-19 05:30N 59°07' E 010°14'1 2.6
2017-Aug-19 05:00N 59°06' E 010°14'0 0.0
2017-Aug-19 04:29N 59°06' E 010°14'0 0.0
2017-Aug-19 03:59N 59°06' E 010°14'0 0.0
2017-Aug-19 03:27N 59°06' E 010°14'0 0.0
2017-Aug-19 03:00N 59°06' E 010°14'0 0.0
2017-Aug-19 02:30N 59°06' E 010°14'0 0.0
2017-Aug-19 01:58N 59°06' E 010°14'0 0.0
2017-Aug-19 01:25N 59°06' E 010°14'0 0.0
2017-Aug-19 00:56N 59°06' E 010°14'0 0.0
2017-Aug-19 00:29N 59°06' E 010°14'0 0.0
2017-Aug-18 23:59N 59°06' E 010°14'0 0.0
2017-Aug-18 23:27N 59°06' E 010°14'0 0.0
2017-Aug-18 22:45N 59°06' E 010°14'0 0.0
2017-Aug-18 22:24N 59°06' E 010°14'0 0.0
2017-Aug-18 21:58N 59°06' E 010°14'0 0.0
2017-Aug-18 21:25N 59°06' E 010°14'0 0.0
2017-Aug-18 20:58N 59°06' E 010°14'0 0.0
2017-Aug-18 20:31N 59°06' E 010°14'0 0.0
2017-Aug-18 20:01N 59°06' E 010°14'1 1.5
2017-Aug-18 19:30N 59°07' E 010°14'1 1.3
2017-Aug-18 19:01N 59°08' E 010°14'4 7.6
2017-Aug-18 18:30N 59°04' E 010°15'714.1
2017-Aug-18 18:00N 59°01' E 010°27'815.9
2017-Aug-18 17:30N 59°01' E 010°43'815.5
2017-Aug-18 17:00N 58°60' E 010°58'714.8
2017-Aug-18 16:31N 58°56' E 011°10'0 0.7
2017-Aug-18 16:00N 58°56' E 011°10'3 6.2
2017-Aug-18 15:31N 58°57' E 011°04'714.5
2017-Aug-18 15:00N 59°01' E 010°53'1615.7
2017-Aug-18 14:00N 59°01' E 010°22'713.8
2017-Aug-18 13:30N 59°06' E 010°14'2 3.1
2017-Aug-18 13:00N 59°08' E 010°14'0 0.0
2017-Aug-18 12:30N 59°08' E 010°14'4 8.5
2017-Aug-18 12:00N 59°03' E 010°15'713.5
2017-Aug-18 11:30N 59°01' E 010°27'815.2
2017-Aug-18 11:01N 59°02' E 010°42'815.7
2017-Aug-18 10:31N 59°00' E 010°57'815.3
2017-Aug-18 10:01N 58°56' E 011°09'1 1.2
2017-Aug-18 09:31N 58°56' E 011°10'0 0.0
2017-Aug-18 09:00N 58°56' E 011°10'611.2
2017-Aug-18 08:31N 58°59' E 011°01'816.3
2017-Aug-18 08:00N 59°02' E 010°46'816.4
2017-Aug-18 07:30N 59°00' E 010°30'815.6
2017-Aug-18 07:01N 59°02' E 010°16'510.9
2017-Aug-18 06:30N 59°08' E 010°14'0 0.0
2017-Aug-18 06:01N 59°08' E 010°14'1 2.9
2017-Aug-18 05:30N 59°06' E 010°14'0 0.1
2017-Aug-18 05:00N 59°06' E 010°14'0 0.0
2017-Aug-18 04:30N 59°06' E 010°14'0 0.0
2017-Aug-18 04:00N 59°06' E 010°14'0 0.0
2017-Aug-18 03:25N 59°06' E 010°14'0 0.0
2017-Aug-18 02:37N 59°06' E 010°14'0 0.0
2017-Aug-18 02:28N 59°06' E 010°14'0 0.0
2017-Aug-18 01:59N 59°06' E 010°14'0 0.0
2017-Aug-18 01:29N 59°06' E 010°14'0 0.0
2017-Aug-18 00:59N 59°06' E 010°14'0 0.0
2017-Aug-18 00:30N 59°06' E 010°14'0 0.0
2017-Aug-18 00:00N 59°06' E 010°14'0 0.0
2017-Aug-17 23:27N 59°06' E 010°14'0 0.0
2017-Aug-17 22:58N 59°06' E 010°14'0 0.0
2017-Aug-17 22:28N 59°06' E 010°14'0 0.0
2017-Aug-17 21:58N 59°06' E 010°14'0 0.0
2017-Aug-17 21:29N 59°06' E 010°14'0 0.0
2017-Aug-17 20:59N 59°06' E 010°14'0 0.0
2017-Aug-17 20:26N 59°06' E 010°14'0 0.0
2017-Aug-17 20:00N 59°06' E 010°14'0 0.0
2017-Aug-17 19:30N 59°06' E 010°14'1 2.8
2017-Aug-17 19:01N 59°08' E 010°14'3 6.0
2017-Aug-17 18:30N 59°05' E 010°15'713.9
2017-Aug-17 18:01N 59°01' E 010°26'816.2
2017-Aug-17 17:31N 59°01' E 010°42'815.9
2017-Aug-17 17:01N 59°00' E 010°57'815.1
2017-Aug-17 16:30N 58°56' E 011°09'1 1.2
2017-Aug-17 16:00N 58°56' E 011°10'3 5.6
2017-Aug-17 15:31N 58°56' E 011°05'815.2
2017-Aug-17 15:00N 59°01' E 010°53'815.8
2017-Aug-17 14:30N 59°01' E 010°37'816.0
2017-Aug-17 14:00N 59°01' E 010°22'713.5
2017-Aug-17 13:31N 59°06' E 010°14'1 2.8
2017-Aug-17 13:01N 59°08' E 010°14'0 0.0
2017-Aug-17 12:31N 59°08' E 010°14'510.0
2017-Aug-17 12:01N 59°03' E 010°15'714.8
2017-Aug-17 11:31N 59°01' E 010°29'714.9
2017-Aug-17 11:00N 59°02' E 010°44'714.7
2017-Aug-17 10:31N 59°00' E 010°57'714.8
2017-Aug-17 10:00N 58°56' E 011°09'0 0.9
2017-Aug-17 09:30N 58°56' E 011°10'0 0.0
2017-Aug-17 09:01N 58°56' E 011°10'611.6
2017-Aug-17 08:31N 58°59' E 011°00'714.9
2017-Aug-17 08:00N 59°02' E 010°47'815.5
2017-Aug-17 07:30N 59°01' E 010°32'714.9
2017-Aug-17 07:00N 59°01' E 010°18'612.5
2017-Aug-17 06:30N 59°07' E 010°14'0 0.4
2017-Aug-17 06:01N 59°08' E 010°14'1 2.8
2017-Aug-17 05:30N 59°06' E 010°14'0 0.1
2017-Aug-17 04:55N 59°06' E 010°14'0 0.0
2017-Aug-17 04:28N 59°06' E 010°14'0 0.0
2017-Aug-17 03:56N 59°06' E 010°14'0 0.0
2017-Aug-17 03:29N 59°06' E 010°14'0 0.0
2017-Aug-17 02:59N 59°06' E 010°14'0 0.0
2017-Aug-17 02:30N 59°06' E 010°14'0 0.0
2017-Aug-17 02:00N 59°06' E 010°14'0 0.0
2017-Aug-17 01:30N 59°06' E 010°14'0 0.0
2017-Aug-17 00:58N 59°06' E 010°14'0 0.0
2017-Aug-17 00:25N 59°06' E 010°14'0 0.0
2017-Aug-16 23:58N 59°06' E 010°14'0 0.0
2017-Aug-16 23:29N 59°06' E 010°14'0 0.0
2017-Aug-16 22:59N 59°06' E 010°14'0 0.0
2017-Aug-16 22:29N 59°06' E 010°14'0 0.0
2017-Aug-16 22:00N 59°06' E 010°14'0 0.0
2017-Aug-16 21:30N 59°06' E 010°14'0 0.0
2017-Aug-16 21:00N 59°06' E 010°14'0 0.0
2017-Aug-16 20:25N 59°06' E 010°14'0 0.0
2017-Aug-16 19:58N 59°06' E 010°14'0 0.2
2017-Aug-16 19:30N 59°06' E 010°14'1 2.3
2017-Aug-16 18:55N 59°08' E 010°14'4 8.7
2017-Aug-16 18:30N 59°04' E 010°15'714.2
2017-Aug-16 18:00N 59°01' E 010°27'815.8
2017-Aug-16 17:31N 59°01' E 010°42'815.3
2017-Aug-16 17:00N 59°00' E 010°57'715.0
2017-Aug-16 16:31N 58°56' E 011°09'1 1.3
2017-Aug-16 16:00N 58°56' E 011°10'4 7.1
2017-Aug-16 15:30N 58°57' E 011°04'714.7
2017-Aug-16 15:01N 59°01' E 010°52'715.0
2017-Aug-16 14:31N 59°01' E 010°37'816.0
2017-Aug-16 14:00N 59°01' E 010°21'713.4
2017-Aug-16 13:30N 59°06' E 010°14'1 2.3
2017-Aug-16 12:58N 59°08' E 010°14'0 0.2
2017-Aug-16 12:31N 59°07' E 010°14'611.1
2017-Aug-16 12:01N 59°02' E 010°16'714.3
2017-Aug-16 11:30N 59°00' E 010°29'714.2
2017-Aug-16 11:01N 59°01' E 010°43'714.1
2017-Aug-16 10:31N 59°00' E 010°57'714.8
2017-Aug-16 10:00N 58°56' E 011°08'1 2.0
2017-Aug-16 09:30N 58°56' E 011°10'0 0.0
2017-Aug-16 09:01N 58°56' E 011°10'612.2
2017-Aug-16 08:30N 58°59' E 010°60'815.3
2017-Aug-16 08:01N 59°02' E 010°46'815.7
2017-Aug-16 07:30N 59°00' E 010°31'815.2
2017-Aug-16 07:00N 59°02' E 010°16'611.0
2017-Aug-16 06:28N 59°08' E 010°14'0 0.0
2017-Aug-16 06:00N 59°08' E 010°14'1 2.6
2017-Aug-16 05:27N 59°06' E 010°14'0 0.0
2017-Aug-16 05:00N 59°06' E 010°14'0 0.0
2017-Aug-16 04:28N 59°06' E 010°14'0 0.0
2017-Aug-16 03:58N 59°06' E 010°14'0 0.0
2017-Aug-16 03:28N 59°06' E 010°14'0 0.0
2017-Aug-16 02:53N 59°06' E 010°14'0 0.0
2017-Aug-16 02:29N 59°06' E 010°14'0 0.0
2017-Aug-16 01:59N 59°06' E 010°14'0 0.0
2017-Aug-16 01:24N 59°06' E 010°14'0 0.0
2017-Aug-16 00:54N 59°06' E 010°14'0 0.0
2017-Aug-16 00:30N 59°06' E 010°14'0 0.0
2017-Aug-15 23:52N 59°06' E 010°14'0 0.0
2017-Aug-15 23:28N 59°06' E 010°14'0 0.0
2017-Aug-15 22:55N 59°06' E 010°14'0 0.0
2017-Aug-15 22:26N 59°06' E 010°14'0 0.0
2017-Aug-15 21:59N 59°06' E 010°14'0 0.0
2017-Aug-15 21:23N 59°06' E 010°14'0 0.0
2017-Aug-15 21:00N 59°06' E 010°14'0 0.0
2017-Aug-15 20:30N 59°06' E 010°14'0 0.0
2017-Aug-15 19:57N 59°06' E 010°14'1 2.8
2017-Aug-15 19:30N 59°07' E 010°14'0 0.4
2017-Aug-15 19:01N 59°08' E 010°14'3 6.4
2017-Aug-15 18:30N 59°04' E 010°15'713.5
2017-Aug-15 18:00N 59°01' E 010°26'815.8
2017-Aug-15 17:31N 59°01' E 010°41'815.5
2017-Aug-15 17:01N 59°00' E 010°56'815.8
2017-Aug-15 16:30N 58°56' E 011°09'1 1.5
2017-Aug-15 16:00N 58°56' E 011°10'4 7.8
2017-Aug-15 15:30N 58°57' E 011°03'815.2
2017-Aug-15 15:00N 59°01' E 010°50'815.5
2017-Aug-15 14:30N 59°01' E 010°35'815.4
2017-Aug-15 14:00N 59°01' E 010°21'612.6
2017-Aug-15 13:30N 59°06' E 010°14'1 2.6
2017-Aug-15 13:00N 59°08' E 010°14'0 0.1
2017-Aug-15 12:30N 59°08' E 010°14'510.8
2017-Aug-15 12:01N 59°02' E 010°15'713.6
2017-Aug-15 11:30N 59°01' E 010°28'714.4
2017-Aug-15 11:00N 59°02' E 010°42'714.6
2017-Aug-15 10:30N 59°00' E 010°56'814.9
2017-Aug-15 10:00N 58°56' E 011°08'1 2.0
2017-Aug-15 09:30N 58°56' E 011°10'0 0.0
2017-Aug-15 09:01N 58°56' E 011°10'510.8
2017-Aug-15 08:30N 58°59' E 011°01'714.9
2017-Aug-15 08:00N 59°02' E 010°48'815.2
2017-Aug-15 07:30N 59°01' E 010°33'815.6
2017-Aug-15 07:00N 59°01' E 010°18'612.3
2017-Aug-15 06:30N 59°07' E 010°14'0 0.8
2017-Aug-15 06:00N 59°08' E 010°14'1 2.9
2017-Aug-15 05:30N 59°06' E 010°14'0 0.1
2017-Aug-15 05:00N 59°06' E 010°14'0 0.0
2017-Aug-15 04:30N 59°06' E 010°14'0 0.0
2017-Aug-15 04:00N 59°06' E 010°14'0 0.0
2017-Aug-15 03:25N 59°06' E 010°14'0 0.0
2017-Aug-15 02:58N 59°06' E 010°14'0 0.0
2017-Aug-15 02:28N 59°06' E 010°14'0 0.0
2017-Aug-15 01:59N 59°06' E 010°14'0 0.0
2017-Aug-15 01:26N 59°06' E 010°14'0 0.0
2017-Aug-15 00:59N 59°06' E 010°14'0 0.0
2017-Aug-15 00:30N 59°06' E 010°14'0 0.0
2017-Aug-15 00:00N 59°06' E 010°14'0 0.0
2017-Aug-14 23:30N 59°06' E 010°14'0 0.0
2017-Aug-14 22:58N 59°06' E 010°14'0 0.0
2017-Aug-14 22:28N 59°06' E 010°14'0 0.0
2017-Aug-14 21:58N 59°06' E 010°14'0 0.0
2017-Aug-14 21:23N 59°06' E 010°14'0 0.0
2017-Aug-14 20:59N 59°06' E 010°14'0 0.0
2017-Aug-14 20:26N 59°06' E 010°14'0 0.0
2017-Aug-14 20:00N 59°06' E 010°14'0 0.6
2017-Aug-14 19:30N 59°06' E 010°14'1 2.3
2017-Aug-14 19:01N 59°08' E 010°14'4 7.8
2017-Aug-14 18:30N 59°04' E 010°15'714.2
2017-Aug-14 18:01N 59°01' E 010°27'815.9
2017-Aug-14 17:31N 59°01' E 010°43'815.8
2017-Aug-14 17:01N 59°00' E 010°58'714.4
2017-Aug-14 16:30N 58°56' E 011°10'0 0.6
2017-Aug-14 16:01N 58°56' E 011°10'3 5.4
2017-Aug-14 15:30N 58°56' E 011°05'714.4
2017-Aug-14 15:01N 59°01' E 010°54'816.1
2017-Aug-14 14:30N 59°01' E 010°38'816.4
2017-Aug-14 14:00N 59°01' E 010°22'713.5
2017-Aug-14 13:31N 59°06' E 010°14'1 2.9
2017-Aug-14 13:00N 59°08' E 010°14'0 0.1
2017-Aug-14 12:30N 59°08' E 010°14'611.1
2017-Aug-14 12:01N 59°02' E 010°16'714.0
2017-Aug-14 11:30N 59°01' E 010°29'714.9
2017-Aug-14 11:01N 59°02' E 010°43'714.8
2017-Aug-14 10:31N 59°00' E 010°57'714.5
2017-Aug-14 10:00N 58°56' E 011°09'1 1.4
2017-Aug-14 09:30N 58°56' E 011°10'0 0.0
2017-Aug-14 09:00N 58°56' E 011°10'611.1
2017-Aug-14 08:30N 58°59' E 011°01'815.3
2017-Aug-14 08:01N 59°02' E 010°47'815.2
2017-Aug-14 07:31N 59°01' E 010°33'816.0
2017-Aug-14 07:00N 59°01' E 010°17'612.3
2017-Aug-14 06:30N 59°07' E 010°14'0 0.5
2017-Aug-14 06:00N 59°08' E 010°14'1 2.8
2017-Aug-14 05:31N 59°06' E 010°14'0 0.1
2017-Aug-14 04:59N 59°06' E 010°14'0 0.0
2017-Aug-14 04:27N 59°06' E 010°14'0 0.0
2017-Aug-14 04:00N 59°06' E 010°14'0 0.0
2017-Aug-14 03:27N 59°06' E 010°14'0 0.0
2017-Aug-14 02:58N 59°06' E 010°14'0 0.0
2017-Aug-14 02:28N 59°06' E 010°14'0 0.0
2017-Aug-14 01:58N 59°06' E 010°14'0 0.0
2017-Aug-14 01:29N 59°06' E 010°14'0 0.0
2017-Aug-14 00:59N 59°06' E 010°14'0 0.0
2017-Aug-14 00:29N 59°06' E 010°14'0 0.0
2017-Aug-14 00:00N 59°06' E 010°14'0 0.0
2017-Aug-13 23:30N 59°06' E 010°14'0 0.0
2017-Aug-13 23:00N 59°06' E 010°14'0 0.0
2017-Aug-13 22:28N 59°06' E 010°14'0 0.0
2017-Aug-13 21:58N 59°06' E 010°14'0 0.0
2017-Aug-13 21:28N 59°06' E 010°14'0 0.0
2017-Aug-13 20:59N 59°06' E 010°14'0 0.0
2017-Aug-13 20:29N 59°06' E 010°14'0 0.0
2017-Aug-13 19:59N 59°06' E 010°14'1 2.0
2017-Aug-13 19:30N 59°07' E 010°14'1 1.0
2017-Aug-13 19:00N 59°08' E 010°14'5 9.6
2017-Aug-13 18:30N 59°03' E 010°15'815.2
2017-Aug-13 18:00N 59°01' E 010°29'816.7
2017-Aug-13 17:30N 59°02' E 010°45'816.1
2017-Aug-13 17:00N 58°59' E 011°00'612.1
2017-Aug-13 16:31N 58°56' E 011°10'0 0.0
2017-Aug-13 16:01N 58°56' E 011°10'4 7.0
2017-Aug-13 15:31N 58°57' E 011°04'815.4
2017-Aug-13 15:01N 59°01' E 010°51'815.8
2017-Aug-13 14:31N 59°01' E 010°36'816.1
2017-Aug-13 14:01N 59°01' E 010°20'  
Track history (hours):
 
Tides and Currents Weather Stations Pressure Air Temp Water Temp Dewpoint Dewpoint Depression Visibility Wind Speed Wind Dir Waves Ship Positions

DucheSS Of Scandinavia

Operator: DFDS A/S

Last reported at 2017-Aug-23 13:30 UTC. Time now 2017-Aug-23 13:44 UTC.
Position N 59°06' E 010°14'.

Length 134 m; draft 5.4 m.

Type: Passenger vessel. MMSI: 219002929.

Date/timePositionNaut miles runAvg speedWind from/ knotsBaromVisibWave heightAir tempDewpointWater temp
2017-Aug-23 13:30N 59°06' E 010°14'1 2.9
2017-Aug-23 13:01N 59°08' E 010°14'0 0.0
2017-Aug-23 12:30N 59°08' E 010°14'4 8.6
2017-Aug-23 12:00N 59°03' E 010°15'713.8
2017-Aug-23 11:30N 59°01' E 010°28'815.6
2017-Aug-23 11:01N 59°02' E 010°43'714.8
2017-Aug-23 10:30N 59°00' E 010°57'714.7
2017-Aug-23 10:01N 58°56' E 011°08'1 1.9
2017-Aug-23 09:30N 58°56' E 011°10'0 0.0
2017-Aug-23 09:00N 58°56' E 011°10'5 9.3
2017-Aug-23 08:30N 58°58' E 011°02'816.3
2017-Aug-23 08:01N 59°02' E 010°48'816.1
2017-Aug-23 07:31N 59°01' E 010°32'816.0
2017-Aug-23 07:00N 59°01' E 010°17'612.1
2017-Aug-23 06:29N 59°07' E 010°14'0 0.4
2017-Aug-23 06:00N 59°08' E 010°14'0 0.2
2017-Aug-23 05:30N 59°07' E 010°14'1 2.5
2017-Aug-23 04:58N 59°06' E 010°14'0 0.0
2017-Aug-23 04:29N 59°06' E 010°14'0 0.0
2017-Aug-23 03:59N 59°06' E 010°14'0 0.0
2017-Aug-23 03:26N 59°06' E 010°14'0 0.0
2017-Aug-23 03:00N 59°06' E 010°14'0 0.0
2017-Aug-23 02:27N 59°06' E 010°14'0 0.0
2017-Aug-23 01:54N 59°06' E 010°14'0 0.0
2017-Aug-23 01:28N 59°06' E 010°14'0 0.0
2017-Aug-23 00:52N 59°06' E 010°14'0 0.0
2017-Aug-23 00:22N 59°06' E 010°14'0 0.0
2017-Aug-22 23:59N 59°06' E 010°14'0 0.0
2017-Aug-22 23:29N 59°06' E 010°14'0 0.0
2017-Aug-22 22:53N 59°06' E 010°14'0 0.0
2017-Aug-22 22:30N 59°06' E 010°14'0 0.0
2017-Aug-22 22:00N 59°06' E 010°14'0 0.0
2017-Aug-22 21:30N 59°06' E 010°14'0 0.0
2017-Aug-22 20:55N 59°06' E 010°14'0 0.0
2017-Aug-22 20:28N 59°06' E 010°14'0 0.0
2017-Aug-22 19:49N 59°06' E 010°14'0 0.2
2017-Aug-22 19:30N 59°06' E 010°14'1 2.8
2017-Aug-22 19:00N 59°08' E 010°14'3 5.9
2017-Aug-22 18:31N 59°05' E 010°15'713.1
2017-Aug-22 18:01N 59°01' E 010°25'816.1
2017-Aug-22 17:31N 59°01' E 010°41'816.1
2017-Aug-22 17:00N 59°00' E 010°56'815.3
2017-Aug-22 16:31N 58°56' E 011°08'1 2.0
2017-Aug-22 16:00N 58°56' E 011°10'3 6.1
2017-Aug-22 15:31N 58°57' E 011°04'815.8
2017-Aug-22 15:01N 59°01' E 010°51'816.0
2017-Aug-22 14:30N 59°00' E 010°36'815.7
2017-Aug-22 14:01N 59°00' E 010°21'713.6
2017-Aug-22 13:30N 59°06' E 010°14'1 2.9
2017-Aug-22 13:00N 59°08' E 010°14'0 0.0
2017-Aug-22 12:30N 59°08' E 010°14'4 8.6
2017-Aug-22 12:00N 59°03' E 010°15'713.6
2017-Aug-22 11:31N 59°01' E 010°27'815.2
2017-Aug-22 11:01N 59°02' E 010°42'714.9
2017-Aug-22 10:31N 59°00' E 010°56'815.4
2017-Aug-22 10:01N 58°56' E 011°08'1 2.1
2017-Aug-22 09:31N 58°56' E 011°10'0 0.0
2017-Aug-22 09:01N 58°56' E 011°10'612.8
2017-Aug-22 08:30N 58°59' E 010°59'815.8
2017-Aug-22 08:01N 59°01' E 010°45'816.0
2017-Aug-22 07:31N 58°59' E 010°30'815.8
2017-Aug-22 07:01N 59°02' E 010°16'611.4
2017-Aug-22 06:30N 59°08' E 010°14'0 0.1
2017-Aug-22 06:00N 59°08' E 010°14'1 2.8
2017-Aug-22 05:30N 59°06' E 010°14'0 0.0
2017-Aug-22 04:53N 59°06' E 010°14'0 0.0
2017-Aug-22 04:27N 59°06' E 010°14'0 0.0
2017-Aug-22 04:00N 59°06' E 010°14'0 0.0
2017-Aug-22 03:30N 59°06' E 010°14'0 0.0
2017-Aug-22 02:58N 59°06' E 010°14'0 0.0
2017-Aug-22 02:28N 59°06' E 010°14'0 0.0
2017-Aug-22 01:58N 59°06' E 010°14'0 0.0
2017-Aug-22 01:29N 59°06' E 010°14'0 0.0
2017-Aug-22 00:59N 59°06' E 010°14'0 0.0
2017-Aug-22 00:29N 59°06' E 010°14'0 0.0
2017-Aug-22 00:00N 59°06' E 010°14'0 0.0
2017-Aug-21 23:30N 59°06' E 010°14'0 0.0
2017-Aug-21 23:00N 59°06' E 010°14'0 0.0
2017-Aug-21 22:28N 59°06' E 010°14'0 0.0
2017-Aug-21 21:58N 59°06' E 010°14'0 0.0
2017-Aug-21 21:28N 59°06' E 010°14'0 0.0
2017-Aug-21 20:59N 59°06' E 010°14'0 0.0
2017-Aug-21 20:29N 59°06' E 010°14'0 0.0
2017-Aug-21 19:59N 59°06' E 010°14'0 0.0
2017-Aug-21 19:31N 59°06' E 010°14'1 2.9
2017-Aug-21 19:01N 59°08' E 010°14'3 6.2
2017-Aug-21 18:31N 59°05' E 010°15'713.4
2017-Aug-21 18:01N 59°01' E 010°26'816.3
2017-Aug-21 17:30N 59°01' E 010°41'815.9
2017-Aug-21 17:00N 59°00' E 010°57'815.2
2017-Aug-21 16:31N 58°56' E 011°09'1 1.6
2017-Aug-21 16:00N 58°56' E 011°10'3 6.0
2017-Aug-21 15:30N 58°57' E 011°04'815.5
2017-Aug-21 15:01N 59°01' E 010°52'816.0
2017-Aug-21 14:30N 59°01' E 010°36'815.6
2017-Aug-21 14:01N 59°01' E 010°21'612.9
2017-Aug-21 13:30N 59°06' E 010°14'1 2.7
2017-Aug-21 13:01N 59°08' E 010°14'0 0.0
2017-Aug-21 12:30N 59°08' E 010°14'5 9.5
2017-Aug-21 12:00N 59°03' E 010°15'713.9
2017-Aug-21 11:30N 59°01' E 010°28'815.5
2017-Aug-21 11:00N 59°02' E 010°43'815.1
2017-Aug-21 10:30N 58°60' E 010°57'714.7
2017-Aug-21 10:00N 58°56' E 011°09'1 1.2
2017-Aug-21 09:30N 58°56' E 011°10'0 0.0
2017-Aug-21 09:01N 58°56' E 011°10'510.0
2017-Aug-21 08:31N 58°58' E 011°02'815.6
2017-Aug-21 08:00N 59°02' E 010°48'815.4
2017-Aug-21 07:30N 59°01' E 010°33'815.1
2017-Aug-21 07:00N 59°01' E 010°18'712.7
2017-Aug-21 06:30N 59°07' E 010°14'0 0.6
2017-Aug-21 06:00N 59°08' E 010°14'1 2.8
2017-Aug-21 05:29N 59°06' E 010°14'0 0.0
2017-Aug-21 04:50N 59°06' E 010°14'0 0.0
2017-Aug-21 04:21N 59°06' E 010°14'0 0.0
2017-Aug-21 03:51N 59°06' E 010°14'0 0.0
2017-Aug-21 03:30N 59°06' E 010°14'0 0.0
2017-Aug-21 02:58N 59°06' E 010°14'0 0.0
2017-Aug-21 02:25N 59°06' E 010°14'0 0.0
2017-Aug-21 01:52N 59°06' E 010°14'0 0.0
2017-Aug-21 01:29N 59°06' E 010°14'0 0.0
2017-Aug-21 00:59N 59°06' E 010°14'0 0.0
2017-Aug-21 00:29N 59°06' E 010°14'0 0.0
2017-Aug-21 00:00N 59°06' E 010°14'0 0.0
2017-Aug-20 23:30N 59°06' E 010°14'0 0.0
2017-Aug-20 23:00N 59°06' E 010°14'0 0.0
2017-Aug-20 22:25N 59°06' E 010°14'0 0.0
2017-Aug-20 21:58N 59°06' E 010°14'0 0.0
2017-Aug-20 21:28N 59°06' E 010°14'0 0.0
2017-Aug-20 20:56N 59°06' E 010°14'0 0.0
2017-Aug-20 20:29N 59°06' E 010°14'0 0.0
2017-Aug-20 19:56N 59°06' E 010°14'1 1.5
2017-Aug-20 19:30N 59°07' E 010°14'1 1.6
2017-Aug-20 19:00N 59°08' E 010°14'3 6.0
2017-Aug-20 18:31N 59°05' E 010°15'713.6
2017-Aug-20 18:00N 59°00' E 010°25'816.5
2017-Aug-20 17:31N 59°01' E 010°41'816.3
2017-Aug-20 17:01N 59°00' E 010°57'815.7
2017-Aug-20 16:30N 58°56' E 011°09'1 1.2
2017-Aug-20 16:00N 58°56' E 011°10'3 6.7
2017-Aug-20 15:31N 58°57' E 011°04'815.8
2017-Aug-20 15:00N 59°01' E 010°51'815.7
2017-Aug-20 14:31N 58°60' E 010°36'816.0
2017-Aug-20 14:00N 59°00' E 010°21'714.2
2017-Aug-20 13:30N 59°06' E 010°14'1 2.4
2017-Aug-20 13:01N 59°08' E 010°14'0 0.0
2017-Aug-20 12:30N 59°08' E 010°14'4 8.8
2017-Aug-20 12:00N 59°03' E 010°15'714.2
2017-Aug-20 11:30N 58°59' E 010°27'815.6
2017-Aug-20 11:01N 59°01' E 010°42'815.5
2017-Aug-20 10:31N 59°00' E 010°57'815.6
2017-Aug-20 10:00N 58°56' E 011°09'1 1.3
2017-Aug-20 09:30N 58°56' E 011°10'0 0.0
2017-Aug-20 09:01N 58°56' E 011°10'510.3
2017-Aug-20 08:31N 58°59' E 011°01'815.5
2017-Aug-20 08:01N 59°02' E 010°48'815.6
2017-Aug-20 07:30N 59°01' E 010°33'815.7
2017-Aug-20 07:01N 59°01' E 010°18'612.8
2017-Aug-20 06:30N 59°07' E 010°14'0 0.4
2017-Aug-20 06:00N 59°08' E 010°14'1 2.9
2017-Aug-20 05:30N 59°06' E 010°14'0 0.0
2017-Aug-20 04:56N 59°06' E 010°14'0 0.0
2017-Aug-20 04:27N 59°06' E 010°14'0 0.0
2017-Aug-20 04:00N 59°06' E 010°14'0 0.0
2017-Aug-20 03:30N 59°06' E 010°14'0 0.0
2017-Aug-20 02:58N 59°06' E 010°14'0 0.0
2017-Aug-20 02:28N 59°06' E 010°14'0 0.0
2017-Aug-20 01:58N 59°06' E 010°14'0 0.0
2017-Aug-20 01:29N 59°06' E 010°14'0 0.0
2017-Aug-20 00:59N 59°06' E 010°14'0 0.0
2017-Aug-20 00:29N 59°06' E 010°14'0 0.0
2017-Aug-19 23:54N 59°06' E 010°14'0 0.0
2017-Aug-19 23:24N 59°06' E 010°14'0 0.0
2017-Aug-19 23:00N 59°06' E 010°14'0 0.0
2017-Aug-19 22:28N 59°06' E 010°14'0 0.0
2017-Aug-19 21:58N 59°06' E 010°14'0 0.0
2017-Aug-19 21:25N 59°06' E 010°14'0 0.0
2017-Aug-19 20:56N 59°06' E 010°14'0 0.0
2017-Aug-19 20:29N 59°06' E 010°14'0 0.0
2017-Aug-19 19:59N 59°06' E 010°14'1 2.0
2017-Aug-19 19:30N 59°07' E 010°14'0 1.0
2017-Aug-19 19:00N 59°08' E 010°14'5 9.8
2017-Aug-19 18:30N 59°03' E 010°15'714.3
2017-Aug-19 18:01N 59°00' E 010°28'815.4
2017-Aug-19 17:30N 59°01' E 010°43'815.8
2017-Aug-19 17:01N 58°60' E 010°58'714.3
2017-Aug-19 16:31N 58°56' E 011°10'0 0.3
2017-Aug-19 16:01N 58°56' E 011°10'3 6.7
2017-Aug-19 15:31N 58°57' E 011°04'714.5
2017-Aug-19 15:01N 59°01' E 010°52'1515.4
2017-Aug-19 14:01N 59°01' E 010°22'713.5
2017-Aug-19 13:30N 59°06' E 010°14'2 3.1
2017-Aug-19 13:00N 59°08' E 010°14'0 0.0
2017-Aug-19 12:30N 59°08' E 010°14'510.2
2017-Aug-19 12:00N 59°03' E 010°15'714.7
2017-Aug-19 11:30N 59°00' E 010°29'815.1
2017-Aug-19 11:01N 59°02' E 010°44'715.0
2017-Aug-19 10:30N 58°60' E 010°58'714.4
2017-Aug-19 10:00N 58°56' E 011°09'1 1.0
2017-Aug-19 09:30N 58°56' E 011°10'0 0.0
2017-Aug-19 09:00N 58°56' E 011°10'5 9.7
2017-Aug-19 08:31N 58°58' E 011°02'815.9
2017-Aug-19 08:00N 59°02' E 010°48'816.3
2017-Aug-19 07:30N 59°01' E 010°32'815.7
2017-Aug-19 07:01N 59°01' E 010°17'612.1
2017-Aug-19 06:30N 59°07' E 010°14'0 0.3
2017-Aug-19 06:00N 59°08' E 010°14'0 0.3
2017-Aug-19 05:30N 59°07' E 010°14'1 2.6
2017-Aug-19 05:00N 59°06' E 010°14'0 0.0
2017-Aug-19 04:29N 59°06' E 010°14'0 0.0
2017-Aug-19 03:59N 59°06' E 010°14'0 0.0
2017-Aug-19 03:27N 59°06' E 010°14'0 0.0
2017-Aug-19 03:00N 59°06' E 010°14'0 0.0
2017-Aug-19 02:30N 59°06' E 010°14'0 0.0
2017-Aug-19 01:58N 59°06' E 010°14'0 0.0
2017-Aug-19 01:25N 59°06' E 010°14'0 0.0
2017-Aug-19 00:56N 59°06' E 010°14'0 0.0
2017-Aug-19 00:29N 59°06' E 010°14'0 0.0
2017-Aug-18 23:59N 59°06' E 010°14'0 0.0
2017-Aug-18 23:27N 59°06' E 010°14'0 0.0
2017-Aug-18 22:45N 59°06' E 010°14'0 0.0
2017-Aug-18 22:24N 59°06' E 010°14'0 0.0
2017-Aug-18 21:58N 59°06' E 010°14'0 0.0
2017-Aug-18 21:25N 59°06' E 010°14'0 0.0
2017-Aug-18 20:58N 59°06' E 010°14'0 0.0
2017-Aug-18 20:31N 59°06' E 010°14'0 0.0
2017-Aug-18 20:01N 59°06' E 010°14'1 1.5
2017-Aug-18 19:30N 59°07' E 010°14'1 1.3
2017-Aug-18 19:01N 59°08' E 010°14'4 7.6
2017-Aug-18 18:30N 59°04' E 010°15'714.1
2017-Aug-18 18:00N 59°01' E 010°27'815.9
2017-Aug-18 17:30N 59°01' E 010°43'815.5
2017-Aug-18 17:00N 58°60' E 010°58'714.8
2017-Aug-18 16:31N 58°56' E 011°10'0 0.7
2017-Aug-18 16:00N 58°56' E 011°10'3 6.2
2017-Aug-18 15:31N 58°57' E 011°04'714.5
2017-Aug-18 15:00N 59°01' E 010°53'1615.7
2017-Aug-18 14:00N 59°01' E 010°22'713.8
2017-Aug-18 13:30N 59°06' E 010°14'2 3.1
2017-Aug-18 13:00N 59°08' E 010°14'0 0.0
2017-Aug-18 12:30N 59°08' E 010°14'4 8.5
2017-Aug-18 12:00N 59°03' E 010°15'713.5
2017-Aug-18 11:30N 59°01' E 010°27'815.2
2017-Aug-18 11:01N 59°02' E 010°42'815.7
2017-Aug-18 10:31N 59°00' E 010°57'815.3
2017-Aug-18 10:01N 58°56' E 011°09'1 1.2
2017-Aug-18 09:31N 58°56' E 011°10'0 0.0
2017-Aug-18 09:00N 58°56' E 011°10'611.2
2017-Aug-18 08:31N 58°59' E 011°01'816.3
2017-Aug-18 08:00N 59°02' E 010°46'816.4
2017-Aug-18 07:30N 59°00' E 010°30'815.6
2017-Aug-18 07:01N 59°02' E 010°16'510.9
2017-Aug-18 06:30N 59°08' E 010°14'0 0.0
2017-Aug-18 06:01N 59°08' E 010°14'1 2.9
2017-Aug-18 05:30N 59°06' E 010°14'0 0.1
2017-Aug-18 05:00N 59°06' E 010°14'0 0.0
2017-Aug-18 04:30N 59°06' E 010°14'0 0.0
2017-Aug-18 04:00N 59°06' E 010°14'0 0.0
2017-Aug-18 03:25N 59°06' E 010°14'0 0.0
2017-Aug-18 02:37N 59°06' E 010°14'0 0.0
2017-Aug-18 02:28N 59°06' E 010°14'0 0.0
2017-Aug-18 01:59N 59°06' E 010°14'0 0.0
2017-Aug-18 01:29N 59°06' E 010°14'0 0.0
2017-Aug-18 00:59N 59°06' E 010°14'0 0.0
2017-Aug-18 00:30N 59°06' E 010°14'0 0.0
2017-Aug-18 00:00N 59°06' E 010°14'0 0.0
2017-Aug-17 23:27N 59°06' E 010°14'0 0.0
2017-Aug-17 22:58N 59°06' E 010°14'0 0.0
2017-Aug-17 22:28N 59°06' E 010°14'0 0.0
2017-Aug-17 21:58N 59°06' E 010°14'0 0.0
2017-Aug-17 21:29N 59°06' E 010°14'0 0.0
2017-Aug-17 20:59N 59°06' E 010°14'0 0.0
2017-Aug-17 20:26N 59°06' E 010°14'0 0.0
2017-Aug-17 20:00N 59°06' E 010°14'0 0.0
2017-Aug-17 19:30N 59°06' E 010°14'1 2.8
2017-Aug-17 19:01N 59°08' E 010°14'3 6.0
2017-Aug-17 18:30N 59°05' E 010°15'713.9
2017-Aug-17 18:01N 59°01' E 010°26'816.2
2017-Aug-17 17:31N 59°01' E 010°42'815.9
2017-Aug-17 17:01N 59°00' E 010°57'815.1
2017-Aug-17 16:30N 58°56' E 011°09'1 1.2
2017-Aug-17 16:00N 58°56' E 011°10'3 5.6
2017-Aug-17 15:31N 58°56' E 011°05'815.2
2017-Aug-17 15:00N 59°01' E 010°53'815.8
2017-Aug-17 14:30N 59°01' E 010°37'816.0
2017-Aug-17 14:00N 59°01' E 010°22'713.5
2017-Aug-17 13:31N 59°06' E 010°14'1 2.8
2017-Aug-17 13:01N 59°08' E 010°14'0 0.0
2017-Aug-17 12:31N 59°08' E 010°14'510.0
2017-Aug-17 12:01N 59°03' E 010°15'714.8
2017-Aug-17 11:31N 59°01' E 010°29'714.9
2017-Aug-17 11:00N 59°02' E 010°44'714.7
2017-Aug-17 10:31N 59°00' E 010°57'714.8
2017-Aug-17 10:00N 58°56' E 011°09'0 0.9
2017-Aug-17 09:30N 58°56' E 011°10'0 0.0
2017-Aug-17 09:01N 58°56' E 011°10'611.6
2017-Aug-17 08:31N 58°59' E 011°00'714.9
2017-Aug-17 08:00N 59°02' E 010°47'815.5
2017-Aug-17 07:30N 59°01' E 010°32'714.9
2017-Aug-17 07:00N 59°01' E 010°18'612.5
2017-Aug-17 06:30N 59°07' E 010°14'0 0.4
2017-Aug-17 06:01N 59°08' E 010°14'1 2.8
2017-Aug-17 05:30N 59°06' E 010°14'0 0.1
2017-Aug-17 04:55N 59°06' E 010°14'0 0.0
2017-Aug-17 04:28N 59°06' E 010°14'0 0.0
2017-Aug-17 03:56N 59°06' E 010°14'0 0.0
2017-Aug-17 03:29N 59°06' E 010°14'0 0.0
2017-Aug-17 02:59N 59°06' E 010°14'0 0.0
2017-Aug-17 02:30N 59°06' E 010°14'0 0.0
2017-Aug-17 02:00N 59°06' E 010°14'0 0.0
2017-Aug-17 01:30N 59°06' E 010°14'0 0.0
2017-Aug-17 00:58N 59°06' E 010°14'0 0.0
2017-Aug-17 00:25N 59°06' E 010°14'0 0.0
2017-Aug-16 23:58N 59°06' E 010°14'0 0.0
2017-Aug-16 23:29N 59°06' E 010°14'0 0.0
2017-Aug-16 22:59N 59°06' E 010°14'0 0.0
2017-Aug-16 22:29N 59°06' E 010°14'0 0.0
2017-Aug-16 22:00N 59°06' E 010°14'0 0.0
2017-Aug-16 21:30N 59°06' E 010°14'0 0.0
2017-Aug-16 21:00N 59°06' E 010°14'0 0.0
2017-Aug-16 20:25N 59°06' E 010°14'0 0.0
2017-Aug-16 19:58N 59°06' E 010°14'0 0.2
2017-Aug-16 19:30N 59°06' E 010°14'1 2.3
2017-Aug-16 18:55N 59°08' E 010°14'4 8.7
2017-Aug-16 18:30N 59°04' E 010°15'714.2
2017-Aug-16 18:00N 59°01' E 010°27'815.8
2017-Aug-16 17:31N 59°01' E 010°42'815.3
2017-Aug-16 17:00N 59°00' E 010°57'715.0
2017-Aug-16 16:31N 58°56' E 011°09'1 1.3
2017-Aug-16 16:00N 58°56' E 011°10'4 7.1
2017-Aug-16 15:30N 58°57' E 011°04'714.7
2017-Aug-16 15:01N 59°01' E 010°52'715.0
2017-Aug-16 14:31N 59°01' E 010°37'816.0
2017-Aug-16 14:00N 59°01' E 010°21'713.4
2017-Aug-16 13:30N 59°06' E 010°14'1 2.3
2017-Aug-16 12:58N 59°08' E 010°14'0 0.2
2017-Aug-16 12:31N 59°07' E 010°14'611.1
2017-Aug-16 12:01N 59°02' E 010°16'714.3
2017-Aug-16 11:30N 59°00' E 010°29'714.2
2017-Aug-16 11:01N 59°01' E 010°43'714.1
2017-Aug-16 10:31N 59°00' E 010°57'714.8
2017-Aug-16 10:00N 58°56' E 011°08'1 2.0
2017-Aug-16 09:30N 58°56' E 011°10'0 0.0
2017-Aug-16 09:01N 58°56' E 011°10'612.2
2017-Aug-16 08:30N 58°59' E 010°60'815.3
2017-Aug-16 08:01N 59°02' E 010°46'815.7
2017-Aug-16 07:30N 59°00' E 010°31'815.2
2017-Aug-16 07:00N 59°02' E 010°16'611.0
2017-Aug-16 06:28N 59°08' E 010°14'0 0.0
2017-Aug-16 06:00N 59°08' E 010°14'1 2.6
2017-Aug-16 05:27N 59°06' E 010°14'0 0.0
2017-Aug-16 05:00N 59°06' E 010°14'0 0.0
2017-Aug-16 04:28N 59°06' E 010°14'0 0.0
2017-Aug-16 03:58N 59°06' E 010°14'0 0.0
2017-Aug-16 03:28N 59°06' E 010°14'0 0.0
2017-Aug-16 02:53N 59°06' E 010°14'0 0.0
2017-Aug-16 02:29N 59°06' E 010°14'0 0.0
2017-Aug-16 01:59N 59°06' E 010°14'0 0.0
2017-Aug-16 01:24N 59°06' E 010°14'0 0.0
2017-Aug-16 00:54N 59°06' E 010°14'0 0.0
2017-Aug-16 00:30N 59°06' E 010°14'0 0.0
2017-Aug-15 23:52N 59°06' E 010°14'0 0.0
2017-Aug-15 23:28N 59°06' E 010°14'0 0.0
2017-Aug-15 22:55N 59°06' E 010°14'0 0.0
2017-Aug-15 22:26N 59°06' E 010°14'0 0.0
2017-Aug-15 21:59N 59°06' E 010°14'0 0.0
2017-Aug-15 21:23N 59°06' E 010°14'0 0.0
2017-Aug-15 21:00N 59°06' E 010°14'0 0.0
2017-Aug-15 20:30N 59°06' E 010°14'0 0.0
2017-Aug-15 19:57N 59°06' E 010°14'1 2.8
2017-Aug-15 19:30N 59°07' E 010°14'0 0.4
2017-Aug-15 19:01N 59°08' E 010°14'3 6.4
2017-Aug-15 18:30N 59°04' E 010°15'713.5
2017-Aug-15 18:00N 59°01' E 010°26'815.8
2017-Aug-15 17:31N 59°01' E 010°41'815.5
2017-Aug-15 17:01N 59°00' E 010°56'815.8
2017-Aug-15 16:30N 58°56' E 011°09'1 1.5
2017-Aug-15 16:00N 58°56' E 011°10'4 7.8
2017-Aug-15 15:30N 58°57' E 011°03'815.2
2017-Aug-15 15:00N 59°01' E 010°50'815.5
2017-Aug-15 14:30N 59°01' E 010°35'815.4
2017-Aug-15 14:00N 59°01' E 010°21'612.6
2017-Aug-15 13:30N 59°06' E 010°14'1 2.6
2017-Aug-15 13:00N 59°08' E 010°14'0 0.1
2017-Aug-15 12:30N 59°08' E 010°14'510.8
2017-Aug-15 12:01N 59°02' E 010°15'713.6
2017-Aug-15 11:30N 59°01' E 010°28'714.4
2017-Aug-15 11:00N 59°02' E 010°42'714.6
2017-Aug-15 10:30N 59°00' E 010°56'814.9
2017-Aug-15 10:00N 58°56' E 011°08'1 2.0
2017-Aug-15 09:30N 58°56' E 011°10'0 0.0
2017-Aug-15 09:01N 58°56' E 011°10'510.8
2017-Aug-15 08:30N 58°59' E 011°01'714.9
2017-Aug-15 08:00N 59°02' E 010°48'815.2
2017-Aug-15 07:30N 59°01' E 010°33'815.6
2017-Aug-15 07:00N 59°01' E 010°18'612.3
2017-Aug-15 06:30N 59°07' E 010°14'0 0.8
2017-Aug-15 06:00N 59°08' E 010°14'1 2.9
2017-Aug-15 05:30N 59°06' E 010°14'0 0.1
2017-Aug-15 05:00N 59°06' E 010°14'0 0.0
2017-Aug-15 04:30N 59°06' E 010°14'0 0.0
2017-Aug-15 04:00N 59°06' E 010°14'0 0.0
2017-Aug-15 03:25N 59°06' E 010°14'0 0.0
2017-Aug-15 02:58N 59°06' E 010°14'0 0.0
2017-Aug-15 02:28N 59°06' E 010°14'0 0.0
2017-Aug-15 01:59N 59°06' E 010°14'0 0.0
2017-Aug-15 01:26N 59°06' E 010°14'0 0.0
2017-Aug-15 00:59N 59°06' E 010°14'0 0.0
2017-Aug-15 00:30N 59°06' E 010°14'0 0.0
2017-Aug-15 00:00N 59°06' E 010°14'0 0.0
2017-Aug-14 23:30N 59°06' E 010°14'0 0.0
2017-Aug-14 22:58N 59°06' E 010°14'0 0.0
2017-Aug-14 22:28N 59°06' E 010°14'0 0.0
2017-Aug-14 21:58N 59°06' E 010°14'0 0.0
2017-Aug-14 21:23N 59°06' E 010°14'0 0.0
2017-Aug-14 20:59N 59°06' E 010°14'0 0.0
2017-Aug-14 20:26N 59°06' E 010°14'0 0.0
2017-Aug-14 20:00N 59°06' E 010°14'0 0.6
2017-Aug-14 19:30N 59°06' E 010°14'1 2.3
2017-Aug-14 19:01N 59°08' E 010°14'4 7.8
2017-Aug-14 18:30N 59°04' E 010°15'714.2
2017-Aug-14 18:01N 59°01' E 010°27'815.9
2017-Aug-14 17:31N 59°01' E 010°43'815.8
2017-Aug-14 17:01N 59°00' E 010°58'714.4
2017-Aug-14 16:30N 58°56' E 011°10'0 0.6
2017-Aug-14 16:01N 58°56' E 011°10'3 5.4
2017-Aug-14 15:30N 58°56' E 011°05'714.4
2017-Aug-14 15:01N 59°01' E 010°54'816.1
2017-Aug-14 14:30N 59°01' E 010°38'816.4
2017-Aug-14 14:00N 59°01' E 010°22'713.5
2017-Aug-14 13:31N 59°06' E 010°14'1 2.9
2017-Aug-14 13:00N 59°08' E 010°14'0 0.1
2017-Aug-14 12:30N 59°08' E 010°14'611.1
2017-Aug-14 12:01N 59°02' E 010°16'714.0
2017-Aug-14 11:30N 59°01' E 010°29'714.9
2017-Aug-14 11:01N 59°02' E 010°43'714.8
2017-Aug-14 10:31N 59°00' E 010°57'714.5
2017-Aug-14 10:00N 58°56' E 011°09'1 1.4
2017-Aug-14 09:30N 58°56' E 011°10'0 0.0
2017-Aug-14 09:00N 58°56' E 011°10'611.1
2017-Aug-14 08:30N 58°59' E 011°01'815.3
2017-Aug-14 08:01N 59°02' E 010°47'815.2
2017-Aug-14 07:31N 59°01' E 010°33'816.0
2017-Aug-14 07:00N 59°01' E 010°17'612.3
2017-Aug-14 06:30N 59°07' E 010°14'0 0.5
2017-Aug-14 06:00N 59°08' E 010°14'1 2.8
2017-Aug-14 05:31N 59°06' E 010°14'0 0.1
2017-Aug-14 04:59N 59°06' E 010°14'0 0.0
2017-Aug-14 04:27N 59°06' E 010°14'0 0.0
2017-Aug-14 04:00N 59°06' E 010°14'0 0.0
2017-Aug-14 03:27N 59°06' E 010°14'0 0.0
2017-Aug-14 02:58N 59°06' E 010°14'0 0.0
2017-Aug-14 02:28N 59°06' E 010°14'0 0.0
2017-Aug-14 01:58N 59°06' E 010°14'0 0.0
2017-Aug-14 01:29N 59°06' E 010°14'0 0.0
2017-Aug-14 00:59N 59°06' E 010°14'0 0.0
2017-Aug-14 00:29N 59°06' E 010°14'0 0.0
2017-Aug-14 00:00N 59°06' E 010°14'0 0.0
2017-Aug-13 23:30N 59°06' E 010°14'0 0.0
2017-Aug-13 23:00N 59°06' E 010°14'0 0.0
2017-Aug-13 22:28N 59°06' E 010°14'0 0.0
2017-Aug-13 21:58N 59°06' E 010°14'0 0.0
2017-Aug-13 21:28N 59°06' E 010°14'0 0.0
2017-Aug-13 20:59N 59°06' E 010°14'0 0.0
2017-Aug-13 20:29N 59°06' E 010°14'0 0.0
2017-Aug-13 19:59N 59°06' E 010°14'1 2.0
2017-Aug-13 19:30N 59°07' E 010°14'1 1.0
2017-Aug-13 19:00N 59°08' E 010°14'5 9.6
2017-Aug-13 18:30N 59°03' E 010°15'815.2
2017-Aug-13 18:00N 59°01' E 010°29'816.7
2017-Aug-13 17:30N 59°02' E 010°45'816.1
2017-Aug-13 17:00N 58°59' E 011°00'612.1
2017-Aug-13 16:31N 58°56' E 011°10'0 0.0
2017-Aug-13 16:01N 58°56' E 011°10'4 7.0
2017-Aug-13 15:31N 58°57' E 011°04'815.4
2017-Aug-13 15:01N 59°01' E 010°51'815.8
2017-Aug-13 14:31N 59°01' E 010°36'816.1
2017-Aug-13 14:01N 59°01' E 010°20'  

Dump ship's entire track history